Latest Weather Observations for Sydney Harbour

IDN60801

Issued at 7:32 pm EDT Thursday 11 February 2016 (issued every 30 minutes, with the page automatically refreshed every 10 minutes)

About weather observations | Map of weather stations | Latest weather observations for NSW | Other Formats
Station Details ID: 066196 Name: WEDDING CAKE WEST Lat: -33.84 Lon: 151.26 Height: 6.0 m
Data from the previous 72 hours. | See also: Recent months at Sydney Harbour
Date/Time
EDT
Temp
°C
App
Temp
°C
Dew
Point
Rel
Hum
%
Delta-T
°C
Wind Press
QNH
hPa
Press
MSL
hPa
Rain
since 9 am
mm
Dir
 
Spd
km/h
Gust
km/h
Spd
kts
Gust
kts
11/07:30pm 24.6 - - - - ENE 22 26 12 14 - - -
11/07:00pm 24.6 - - - - ENE 17 19 9 10 - - -
11/06:30pm 24.4 - - - - ENE 15 20 8 11 - - -
11/06:00pm 24.6 - - - - E 15 19 8 10 - - -
11/05:30pm 24.6 - - - - E 19 24 10 13 - - -
11/05:00pm 25.0 - - - - E 20 24 11 13 - - -
11/04:30pm 24.7 - - - - E 22 28 12 15 - - -
11/04:00pm 24.6 - - - - E 22 28 12 15 - - -
11/03:30pm 24.5 - - - - E 20 24 11 13 - - -
11/03:00pm 25.0 - - - - E 19 24 10 13 - - -
11/02:30pm 25.2 - - - - E 17 22 9 12 - - -
11/02:00pm 24.7 - - - - E 17 20 9 11 - - -
11/01:30pm 25.0 - - - - E 17 20 9 11 - - -
11/01:00pm 24.5 - - - - ENE 13 17 7 9 - - -
11/12:30pm 24.4 - - - - ENE 13 17 7 9 - - -
11/12:00pm 24.3 - - - - ENE 13 15 7 8 - - -
11/11:30am 24.4 - - - - ENE 13 17 7 9 - - -
11/11:00am 23.8 - - - - ENE 13 15 7 8 - - -
11/10:30am 23.6 - - - - ENE 15 19 8 10 - - -
11/10:00am 23.8 - - - - ENE 9 13 5 7 - - -
11/09:30am 24.8 - - - - CALM 0 7 0 4 - - -
11/09:00am 24.4 - - - - CALM 0 0 0 0 - - -
11/08:30am 22.9 - - - - N 2 6 1 3 - - -
11/08:00am 22.5 - - - - N 9 11 5 6 - - -
11/07:30am 22.1 - - - - N 9 11 5 6 - - -
11/07:00am 21.5 - - - - N 7 9 4 5 - - -
11/06:30am 21.4 - - - - N 6 7 3 4 - - -
11/06:00am 21.8 - - - - N 7 9 4 5 - - -
11/05:30am 21.8 - - - - N 7 9 4 5 - - -
11/05:00am 21.9 - - - - N 9 13 5 7 - - -
11/04:30am 22.2 - - - - N 11 13 6 7 - - -
11/04:00am 22.6 - - - - N 13 17 7 9 - - -
11/03:30am 23.4 - - - - NNE 24 28 13 15 - - -
11/03:00am 23.3 - - - - NNE 22 28 12 15 - - -
11/02:30am 23.5 - - - - NE 22 30 12 16 - - -
11/02:00am 23.4 - - - - NNE 26 32 14 17 - - -
11/01:30am 23.5 - - - - NNE 28 32 15 17 - - -
11/01:00am 23.6 - - - - NNE 28 32 15 17 - - -
11/12:30am 23.6 - - - - NE 26 30 14 16 - - -
11/12:00am 23.8 - - - - NNE 28 35 15 19 - - -
 
Date/Time
EDT
Temp
°C
App
Temp
°C
Dew
Point
Rel
Hum
%
Delta-T
°C
Wind Press
QNH
hPa
Press
MSL
hPa
Rain
since 9 am
mm
Dir
 
Spd
km/h
Gust
km/h
Spd
kts
Gust
kts
10/11:30pm 23.8 - - - - NNE 30 35 16 19 - - -
10/11:00pm 23.8 - - - - NE 32 39 17 21 - - -
10/10:30pm 24.0 - - - - NNE 37 43 20 23 - - -
10/10:00pm 24.0 - - - - NE 35 43 19 23 - - -
10/09:30pm 24.0 - - - - NNE 35 41 19 22 - - -
10/09:00pm 24.1 - - - - NNE 33 41 18 22 - - -
10/08:30pm 24.1 - - - - NNE 35 41 19 22 - - -
10/08:00pm 23.9 - - - - NNE 32 37 17 20 - - -
10/07:30pm 23.9 - - - - NNE 35 43 19 23 - - -
10/07:00pm 23.9 - - - - NNE 35 43 19 23 - - -
10/06:30pm 23.9 - - - - NNE 33 41 18 22 - - -
10/06:00pm 24.0 - - - - NNE 35 43 19 23 - - -
10/05:30pm 24.1 - - - - NE 35 43 19 23 - - -
10/05:00pm 24.1 - - - - NNE 35 43 19 23 - - -
10/04:30pm 24.0 - - - - NNE 35 39 19 21 - - -
10/04:00pm 24.0 - - - - NNE 33 39 18 21 - - -
10/03:30pm 24.1 - - - - NE 28 35 15 19 - - -
10/03:00pm 24.1 - - - - NE 32 35 17 19 - - -
10/02:30pm 24.2 - - - - NE 28 33 15 18 - - -
10/02:00pm 24.1 - - - - NE 30 35 16 19 - - -
10/01:30pm 23.8 - - - - NE 28 32 15 17 - - -
10/01:00pm 24.1 - - - - ENE 26 30 14 16 - - -
10/12:30pm 24.4 - - - - ENE 24 26 13 14 - - -
10/12:00pm 24.8 - - - - NE 17 20 9 11 - - -
10/11:30am 24.6 - - - - NE 9 13 5 7 - - -
10/11:00am 24.2 - - - - N 9 13 5 7 - - -
10/10:30am 23.8 - - - - N 11 17 6 9 - - -
10/10:00am 23.4 - - - - N 13 17 7 9 - - -
10/09:30am 23.0 - - - - NNW 13 19 7 10 - - -
10/09:00am 22.8 - - - - NNW 11 19 6 10 - - -
10/08:30am 22.4 - - - - W 11 15 6 8 - - -
10/08:00am 21.7 - - - - W 6 7 3 4 - - -
10/07:30am 21.1 - - - - W 6 7 3 4 - - -
10/07:00am 20.7 - - - - W 6 9 3 5 - - -
10/06:30am 20.6 - - - - W 2 7 1 4 - - -
10/06:00am 20.8 - - - - CALM 0 0 0 0 - - -
10/05:30am 21.0 - - - - W 7 9 4 5 - - -
10/05:00am 21.3 - - - - W 6 9 3 5 - - -
10/04:30am 21.5 - - - - CALM 0 6 0 3 - - -
10/04:00am 21.6 - - - - W 7 11 4 6 - - -
10/03:30am 21.6 - - - - E 13 15 7 8 - - -
10/03:00am 21.8 - - - - E 4 7 2 4 - - -
10/02:30am 21.9 - - - - E 9 11 5 6 - - -
10/02:00am 22.2 - - - - CALM 0 0 0 0 - - -
10/01:30am 22.4 - - - - CALM 0 0 0 0 - - -
10/01:00am 22.5 - - - - CALM 0 0 0 0 - - -
10/12:30am 22.5 - - - - CALM 0 0 0 0 - - -
10/12:00am 22.5 - - - - CALM 0 4 0 2 - - -
 
Date/Time
EDT
Temp
°C
App
Temp
°C
Dew
Point
Rel
Hum
%
Delta-T
°C
Wind Press
QNH
hPa
Press
MSL
hPa
Rain
since 9 am
mm
Dir
 
Spd
km/h
Gust
km/h
Spd
kts
Gust
kts
09/11:30pm 23.1 - - - - E 7 9 4 5 - - -
09/11:00pm 23.1 - - - - E 7 9 4 5 - - -
09/10:30pm 23.2 - - - - E 7 9 4 5 - - -
09/10:00pm 23.1 - - - - E 9 13 5 7 - - -
09/09:30pm 23.1 - - - - E 9 11 5 6 - - -
09/09:00pm 23.2 - - - - E 13 15 7 8 - - -
09/08:30pm 23.2 - - - - ESE 13 17 7 9 - - -
09/08:00pm 23.2 - - - - ESE 15 17 8 9 - - -
09/07:30pm 23.5 - - - - SE 15 20 8 11 - - -
09/07:00pm 24.0 - - - - SE 17 20 9 11 - - -
09/06:30pm 24.3 - - - - SE 17 20 9 11 - - -
09/06:00pm 24.0 - - - - SE 19 26 10 14 - - -
09/05:30pm 24.4 - - - - SE 20 28 11 15 - - -
09/05:00pm 24.1 - - - - SE 22 28 12 15 - - -
09/04:30pm 23.9 - - - - SSE 24 30 13 16 - - -
09/04:00pm 23.9 - - - - SSE 22 32 12 17 - - -
09/03:30pm 24.1 - - - - SSE 20 32 11 17 - - -
09/03:00pm 23.7 - - - - SSE 22 32 12 17 - - -
09/02:30pm 23.3 - - - - S 26 35 14 19 - - -
09/02:00pm 23.8 - - - - SSE 22 32 12 17 - - -
09/01:30pm 23.6 - - - - S 26 37 14 20 - - -
09/01:00pm 23.5 - - - - S 26 35 14 19 - - -
09/12:30pm 23.6 - - - - S 26 35 14 19 - - -
09/12:00pm 23.2 - - - - S 28 39 15 21 - - -
09/11:30am 23.4 - - - - S 28 35 15 19 - - -
09/11:00am 23.4 - - - - S 30 37 16 20 - - -
09/10:30am 23.7 - - - - S 30 39 16 21 - - -
09/10:00am 23.3 - - - - S 30 43 16 23 - - -
09/09:30am 23.4 - - - - S 32 39 17 21 - - -
09/09:00am 23.5 - - - - S 26 33 14 18 - - -
09/08:30am 23.3 - - - - S 28 35 15 19 - - -
09/08:00am 22.3 - - - - WSW 15 22 8 12 - - -
09/07:30am 22.0 - - - - WSW 17 24 9 13 - - -
09/07:00am 22.1 - - - - W 13 17 7 9 - - -
09/06:30am 22.2 - - - - W 11 13 6 7 - - -
09/06:00am 21.9 - - - - W 11 15 6 8 - - -
09/05:30am 22.7 - - - - WSW 9 13 5 7 - - -
09/05:00am 23.4 - - - - S 17 20 9 11 - - -
09/04:30am 23.3 - - - - S 13 17 7 9 - - -
09/04:00am 23.0 - - - - S 11 15 6 8 - - -
09/03:30am 23.1 - - - - SSE 19 24 10 13 - - -
09/03:00am 23.1 - - - - S 11 15 6 8 - - -
09/02:30am 23.1 - - - - S 13 17 7 9 - - -
09/02:00am 23.2 - - - - SSE 15 19 8 10 - - -
09/01:30am 23.3 - - - - SSE 15 22 8 12 - - -
09/01:00am 23.3 - - - - SSE 13 17 7 9 - - -
09/12:30am 23.3 - - - - SSE 13 19 7 10 - - -
09/12:00am 23.4 - - - - SSE 15 19 8 10 - - -
 
Date/Time
EDT
Temp
°C
App
Temp
°C
Dew
Point
Rel
Hum
%
Delta-T
°C
Wind Press
QNH
hPa
Press
MSL
hPa
Rain
since 9 am
mm
Dir
 
Spd
km/h
Gust
km/h
Spd
kts
Gust
kts
08/11:30pm 23.5 - - - - SSE 13 17 7 9 - - -
08/11:00pm 23.5 - - - - SSE 15 19 8 10 - - -
08/10:30pm 23.5 - - - - SE 13 15 7 8 - - -
08/10:00pm 23.5 - - - - SE 15 19 8 10 - - -
08/09:30pm 23.5 - - - - SE 13 15 7 8 - - -
08/09:00pm 23.5 - - - - SE 9 13 5 7 - - -
08/08:30pm 23.5 - - - - SE 11 13 6 7 - - -
08/08:00pm 23.6 - - - - SE 11 13 6 7 - - -

Other Formats:

Comma delimited format used in spreadsheet applications
http://www.bom.gov.au/fwo/IDN60801/IDN60801.95766.axf

JavaScript Object Notation format (JSON) in row-major order
http://www.bom.gov.au/fwo/IDN60801/IDN60801.95766.json